Time;durP1;ratioP1;P1;durP2;ratioP2;P2;SDS_P1;SDS_P2;PMS_P1;PMS_P2;Temp;Humidity;BMP_temperature;BMP_pressure;BME280_temperature;BME280_humidity;BME280_pressure;Samples;Min_cycle;Max_cycle;Signal;HPM_P1;HPM_P2
2021/12/19 00:00:53;;;;;;;3.97;1.55;;;5.80;99.90;;;;;;4879090;29;20487;-67
2021/12/19 00:11:14;;;;;;;7.70;2.10;;;5.70;99.90;;;;;;4880428;29;20056;-64
2021/12/19 00:13:41;;;;;;;9.82;2.10;;;5.70;99.90;;;;;;4872197;29;20084;-67
2021/12/19 00:16:09;;;;;;;3.45;1.80;;;5.60;99.90;;;;;;4879182;29;20105;-67
2021/12/19 00:18:36;;;;;;;7.57;1.27;;;5.70;99.90;;;;;;4877485;29;20045;-65
2021/12/19 00:21:04;;;;;;;3.15;1.63;;;5.70;99.90;;;;;;4877155;29;20052;-67
2021/12/19 00:23:39;;;;;;;1.67;1.33;;;5.70;99.90;;;;;;4879152;29;20178;-65
2021/12/19 00:26:06;;;;;;;10.10;1.73;;;5.80;99.90;;;;;;4881191;29;20056;-66
2021/12/19 00:28:33;;;;;;;3.25;2.20;;;5.80;99.90;;;;;;4877074;29;20064;-67
2021/12/19 00:31:01;;;;;;;4.60;1.48;;;5.80;99.90;;;;;;4879351;29;20167;-66
2021/12/19 00:33:28;;;;;;;4.22;1.50;;;5.80;99.90;;;;;;4879599;29;20053;-67
2021/12/19 00:35:55;;;;;;;2.20;1.20;;;5.70;99.90;;;;;;4879371;29;20859;-66
2021/12/19 00:38:22;;;;;;;5.30;1.65;;;5.70;99.90;;;;;;4879134;29;20464;-67
2021/12/19 00:40:49;;;;;;;8.73;1.63;;;5.70;99.90;;;;;;4879741;29;20048;-68
2021/12/19 00:43:35;;;;;;;4.13;1.00;;;5.70;99.90;;;;;;4880425;29;20044;-69
2021/12/19 00:46:07;;;;;;;2.78;1.70;;;5.70;99.90;;;;;;4878214;29;20072;-69
2021/12/19 00:48:36;;;;;;;3.78;1.65;;;5.70;99.90;;;;;;4878549;29;20140;-63
2021/12/19 00:51:04;;;;;;;5.00;1.50;;;5.70;99.90;;;;;;4875883;29;20064;-66
2021/12/19 00:53:32;;;;;;;4.65;2.00;;;5.70;99.90;;;;;;4879792;29;20124;-69
2021/12/19 00:55:59;;;;;;;2.70;1.63;;;5.80;99.90;;;;;;4879343;29;20057;-71
2021/12/19 00:58:26;;;;;;;2.88;1.45;;;5.80;99.90;;;;;;4877649;29;20111;-66
2021/12/19 01:00:54;;;;;;;2.63;1.08;;;5.80;99.90;;;;;;4878226;29;20232;-65
2021/12/19 01:03:22;;;;;;;1.25;1.00;;;5.90;99.90;;;;;;4879429;29;20148;-66
2021/12/19 01:05:49;;;;;;;2.65;1.40;;;5.80;99.90;;;;;;4878859;29;20064;-65
2021/12/19 01:08:16;;;;;;;4.60;1.17;;;5.80;99.90;;;;;;4880133;29;20057;-66
2021/12/19 01:10:46;;;;;;;2.20;0.95;;;5.70;99.90;;;;;;4876116;29;20057;-68
2021/12/19 01:13:15;;;;;;;3.22;1.90;;;5.70;99.90;;;;;;4881012;29;20491;-67
2021/12/19 01:15:42;;;;;;;3.72;1.10;;;5.70;99.90;;;;;;4877409;29;20152;-67
2021/12/19 01:18:11;;;;;;;7.95;2.40;;;5.70;99.90;;;;;;4880115;29;20483;-65
2021/12/19 01:20:40;;;;;;;2.85;1.10;;;5.60;99.90;;;;;;4875017;29;20136;-71
2021/12/19 01:23:09;;;;;;;2.15;1.60;;;5.60;99.90;;;;;;4878609;29;20072;-66
2021/12/19 01:25:36;;;;;;;2.38;1.52;;;5.50;99.90;;;;;;4878788;29;20049;-71
2021/12/19 01:28:04;;;;;;;2.65;1.48;;;5.50;99.90;;;;;;4878901;29;20131;-68
2021/12/19 01:30:31;;;;;;;3.70;1.38;;;5.50;99.90;;;;;;4877614;29;20111;-68
2021/12/19 01:32:58;;;;;;;1.90;1.20;;;5.40;99.90;;;;;;4878439;29;20809;-65
2021/12/19 01:35:26;;;;;;;3.38;1.25;;;5.40;99.90;;;;;;4878978;29;20131;-71
2021/12/19 01:37:53;;;;;;;4.53;1.33;;;5.40;99.90;;;;;;4879382;29;20052;-64
2021/12/19 01:40:21;;;;;;;4.00;1.00;;;5.40;99.90;;;;;;4877168;29;20067;-67
2021/12/19 01:42:52;;;;;;;3.30;1.20;;;5.40;99.90;;;;;;4878927;29;20066;-70
2021/12/19 01:45:29;;;;;;;4.15;1.30;;;5.40;99.90;;;;;;4876333;29;20439;-66
2021/12/19 01:47:57;;;;;;;3.95;1.20;;;5.40;99.90;;;;;;4894991;29;20052;-68
2021/12/19 01:50:25;;;;;;;2.08;1.63;;;5.40;99.90;;;;;;4874917;29;20147;-68
2021/12/19 01:52:52;;;;;;;2.67;1.40;;;5.40;99.90;;;;;;4881410;29;20093;-67
2021/12/19 01:55:19;;;;;;;4.75;1.20;;;5.40;99.90;;;;;;4877674;29;20044;-70
2021/12/19 01:57:47;;;;;;;1.60;1.23;;;5.40;99.90;;;;;;4878242;29;20127;-68
2021/12/19 02:00:25;;;;;;;3.35;0.98;;;5.40;99.90;;;;;;4877087;29;20057;-64
2021/12/19 02:02:54;;;;;;;3.28;1.90;;;5.30;99.90;;;;;;4875768;29;20056;-66
2021/12/19 02:05:22;;;;;;;5.45;1.60;;;5.30;99.90;;;;;;4877896;29;20052;-68
2021/12/19 02:07:50;;;;;;;4.38;1.80;;;5.30;99.90;;;;;;4878055;29;20084;-68
2021/12/19 02:10:19;;;;;;;5.97;1.58;;;5.30;99.90;;;;;;4876764;29;20108;-64
2021/12/19 02:12:48;;;;;;;6.68;1.42;;;5.30;99.90;;;;;;4878047;29;20057;-64
2021/12/19 02:15:21;;;;;;;2.83;1.60;;;5.30;99.90;;;;;;4876742;29;20063;-68
2021/12/19 02:17:51;;;;;;;7.53;2.03;;;5.30;99.90;;;;;;4878726;29;20048;-65
2021/12/19 02:20:20;;;;;;;2.83;1.10;;;5.30;99.90;;;;;;4875366;29;20076;-69
2021/12/19 02:22:47;;;;;;;11.35;2.13;;;5.30;99.90;;;;;;4874877;29;20056;-67
2021/12/19 02:25:15;;;;;;;4.50;2.10;;;5.30;99.90;;;;;;4877555;29;20052;-66
2021/12/19 02:27:42;;;;;;;2.83;1.75;;;5.30;99.90;;;;;;4878247;29;20067;-69
2021/12/19 02:30:11;;;;;;;6.53;1.58;;;5.30;99.90;;;;;;4877834;29;21068;-68
2021/12/19 02:32:40;;;;;;;6.68;2.17;;;5.20;99.90;;;;;;4876112;29;20052;-67
2021/12/19 02:35:14;;;;;;;2.30;1.00;;;5.20;99.90;;;;;;4878288;29;20056;-66
2021/12/19 02:40:40;;;;;;;1.58;1.00;;;5.20;99.90;;;;;;4877525;29;20052;-66
2021/12/19 02:48:20;;;;;;;3.40;0.98;;;5.30;99.90;;;;;;4867557;29;20063;-68
2021/12/19 02:50:52;;;;;;;5.82;0.93;;;5.30;99.90;;;;;;4876520;29;20508;-66
2021/12/19 02:53:46;;;;;;;3.83;0.90;;;5.30;99.90;;;;;;4874105;29;20048;-66
2021/12/19 02:56:14;;;;;;;9.38;1.38;;;5.30;99.90;;;;;;4876140;29;20056;-68
2021/12/19 02:58:43;;;;;;;7.03;1.33;;;5.30;99.90;;;;;;4874864;29;20056;-67
2021/12/19 03:01:14;;;;;;;11.35;3.35;;;5.30;99.90;;;;;;4875788;29;20067;-63
2021/12/19 03:03:42;;;;;;;7.90;1.27;;;5.40;99.90;;;;;;4876711;29;20079;-68
2021/12/19 03:06:09;;;;;;;6.50;1.92;;;5.30;99.90;;;;;;4876556;29;20067;-64
2021/12/19 03:08:42;;;;;;;11.35;1.45;;;5.30;99.90;;;;;;4875923;29;20049;-67
2021/12/19 03:19:28;;;;;;;3.00;0.82;;;5.40;99.90;;;;;;4874686;29;20081;-65
2021/12/19 03:21:55;;;;;;;2.28;1.10;;;5.40;99.90;;;;;;4875863;29;20155;-68
2021/12/19 03:24:22;;;;;;;3.45;0.60;;;5.40;99.90;;;;;;4874392;29;20412;-67
2021/12/19 03:26:49;;;;;;;0.73;0.73;;;5.40;99.90;;;;;;4876572;29;20428;-67
2021/12/19 03:29:16;;;;;;;2.80;0.95;;;5.30;99.90;;;;;;4875752;29;20147;-71
2021/12/19 03:31:44;;;;;;;2.30;0.63;;;5.30;99.90;;;;;;4873998;29;20064;-67
2021/12/19 03:34:12;;;;;;;9.70;1.27;;;5.30;99.90;;;;;;4872693;29;20084;-65
2021/12/19 03:36:39;;;;;;;6.45;1.40;;;5.30;99.90;;;;;;4875909;29;20033;-66
2021/12/19 03:39:14;;;;;;;2.65;1.63;;;5.20;99.90;;;;;;4878094;29;20125;-67
2021/12/19 03:41:42;;;;;;;3.67;1.48;;;5.20;99.90;;;;;;4877412;29;20053;-65
2021/12/19 03:44:09;;;;;;;4.75;1.73;;;5.10;99.90;;;;;;4876505;29;20057;-70
2021/12/19 03:46:36;;;;;;;3.50;1.30;;;5.10;99.90;;;;;;4875260;29;20052;-65
2021/12/19 03:49:04;;;;;;;4.85;0.85;;;5.10;99.90;;;;;;4876885;29;20104;-66
2021/12/19 03:51:31;;;;;;;2.78;0.85;;;5.10;99.90;;;;;;4877432;29;20048;-66
2021/12/19 03:53:58;;;;;;;1.17;0.85;;;5.10;99.90;;;;;;4876699;29;20056;-68
2021/12/19 03:56:25;;;;;;;2.40;1.02;;;5.10;99.90;;;;;;4874470;29;20112;-67
2021/12/19 03:58:53;;;;;;;2.95;1.00;;;5.10;99.90;;;;;;4877606;29;20226;-66
2021/12/19 04:01:21;;;;;;;5.15;0.88;;;5.20;99.90;;;;;;4877040;29;20056;-67
2021/12/19 04:03:48;;;;;;;3.15;0.77;;;5.20;99.90;;;;;;4876713;29;20085;-67
2021/12/19 04:06:15;;;;;;;4.45;1.05;;;5.30;99.90;;;;;;4879668;29;20064;-65
2021/12/19 04:08:42;;;;;;;1.98;0.82;;;5.30;99.90;;;;;;4878658;29;20064;-65
2021/12/19 04:11:09;;;;;;;1.85;1.05;;;5.30;99.90;;;;;;4880551;29;20060;-67
2021/12/19 04:13:36;;;;;;;3.30;0.73;;;5.20;99.90;;;;;;4871152;29;20056;-67
2021/12/19 04:16:04;;;;;;;1.90;0.70;;;5.20;99.90;;;;;;4880377;29;20112;-69
2021/12/19 04:18:30;;;;;;;5.07;1.52;;;5.20;99.90;;;;;;4878046;29;21213;-64
2021/12/19 04:20:58;;;;;;;1.77;0.93;;;5.20;99.90;;;;;;4879206;29;20124;-64
2021/12/19 04:23:30;;;;;;;0.95;0.43;;;5.20;99.90;;;;;;4880751;29;20059;-64
2021/12/19 04:25:57;;;;;;;2.85;0.60;;;5.20;99.90;;;;;;4876105;29;20554;-66
2021/12/19 04:28:24;;;;;;;2.42;0.70;;;5.20;99.90;;;;;;4879154;29;20052;-63
2021/12/19 04:30:52;;;;;;;1.55;0.90;;;5.10;99.90;;;;;;4878162;29;20056;-66
2021/12/19 04:33:21;;;;;;;3.38;0.52;;;5.10;99.90;;;;;;4880036;29;20147;-67
2021/12/19 04:35:48;;;;;;;2.40;0.90;;;5.10;99.90;;;;;;4879204;29;20096;-66
2021/12/19 04:57:58;;;;;;;3.60;0.73;;;4.90;99.90;;;;;;4876212;29;20045;-65
2021/12/19 05:00:21;;;;;;;0.85;0.68;;;4.90;99.90;;;;;;4879800;29;20064;-64
2021/12/19 05:16:07;;;;;;;5.38;0.70;;;5.00;99.90;;;;;;4875247;29;20915;-66
2021/12/19 05:18:37;;;;;;;1.90;0.90;;;4.90;99.90;;;;;;4869234;29;20188;-67
2021/12/19 05:21:17;;;;;;;2.08;0.80;;;5.00;99.90;;;;;;4878185;29;20396;-66
2021/12/19 05:26:12;;;;;;;4.90;0.80;;;5.00;99.90;;;;;;4873248;29;20475;-67
2021/12/19 05:28:39;;;;;;;3.38;1.33;;;5.00;99.90;;;;;;4875926;29;20425;-69
2021/12/19 05:31:06;;;;;;;2.10;0.70;;;5.00;99.90;;;;;;4877449;29;20052;-66
2021/12/19 05:33:34;;;;;;;1.65;0.30;;;5.10;99.90;;;;;;4877395;29;20159;-68
2021/12/19 05:46:38;;;;;;;3.05;0.65;;;5.30;99.90;;;;;;4876101;29;20052;-70
2021/12/19 05:49:07;;;;;;;0.73;0.57;;;5.30;99.90;;;;;;4878539;29;21505;-67
2021/12/19 05:51:36;;;;;;;3.10;0.98;;;5.40;99.90;;;;;;4878659;29;20376;-64
2021/12/19 05:54:03;;;;;;;7.35;0.93;;;5.40;99.90;;;;;;4877938;29;20056;-68
2021/12/19 05:56:31;;;;;;;5.15;1.17;;;5.40;99.90;;;;;;4875911;29;20151;-64
2021/12/19 05:58:58;;;;;;;5.40;1.08;;;5.40;99.90;;;;;;4874239;29;20060;-67
2021/12/19 06:01:25;;;;;;;7.18;1.65;;;5.40;99.90;;;;;;4876038;29;20056;-71
2021/12/19 06:03:52;;;;;;;3.08;0.82;;;5.40;99.90;;;;;;4839745;29;1131237;-66
2021/12/19 06:06:19;;;;;;;9.40;1.15;;;5.40;99.90;;;;;;4869728;29;20092;-69
2021/12/19 06:08:46;;;;;;;1.10;0.50;;;5.40;99.90;;;;;;4878948;29;20761;-67
2021/12/19 06:11:16;;;;;;;1.25;0.70;;;5.40;99.90;;;;;;4878026;29;20072;-66
2021/12/19 06:13:43;;;;;;;2.72;0.95;;;5.40;99.90;;;;;;4878991;29;20052;-63
2021/12/19 06:16:11;;;;;;;5.68;0.60;;;5.40;99.90;;;;;;4876212;29;20056;-67
2021/12/19 06:18:38;;;;;;;2.83;0.70;;;5.40;99.90;;;;;;4876759;29;20064;-64
2021/12/19 06:21:05;;;;;;;1.23;0.55;;;5.40;99.90;;;;;;4877057;29;20084;-65
2021/12/19 06:23:33;;;;;;;4.10;0.93;;;5.40;99.90;;;;;;4877561;29;20515;-66
2021/12/19 06:26:00;;;;;;;3.53;0.70;;;5.40;99.90;;;;;;4877203;29;20052;-67
2021/12/19 06:28:28;;;;;;;3.25;0.65;;;5.40;99.90;;;;;;4873847;29;20123;-64
2021/12/19 06:30:55;;;;;;;1.33;0.50;;;5.40;99.90;;;;;;4875920;29;20056;-68
2021/12/19 06:33:22;;;;;;;5.22;0.57;;;5.40;99.90;;;;;;4877526;29;20079;-65
2021/12/19 06:35:54;;;;;;;8.10;1.48;;;5.40;99.90;;;;;;4878037;29;20839;-65
2021/12/19 06:38:21;;;;;;;3.75;1.00;;;5.40;99.90;;;;;;4875085;29;20058;-64
2021/12/19 06:40:48;;;;;;;1.52;0.57;;;5.40;99.90;;;;;;4869658;29;20052;-65
2021/12/19 06:43:16;;;;;;;3.88;0.88;;;5.40;99.90;;;;;;4881409;29;20379;-68
2021/12/19 06:45:43;;;;;;;3.53;0.73;;;5.40;99.90;;;;;;4875650;29;20056;-67
2021/12/19 06:48:10;;;;;;;3.95;0.80;;;5.30;99.90;;;;;;4877470;29;20060;-67
2021/12/19 06:50:37;;;;;;;5.28;1.80;;;5.30;99.90;;;;;;4870986;29;21381;-66
2021/12/19 06:53:04;;;;;;;4.40;0.80;;;5.30;99.90;;;;;;4877728;29;20080;-68
2021/12/19 06:55:31;;;;;;;4.53;0.88;;;5.30;99.90;;;;;;4878165;29;20049;-66
2021/12/19 06:57:58;;;;;;;6.30;1.23;;;5.30;99.90;;;;;;4877161;29;20060;-67
2021/12/19 07:00:26;;;;;;;4.80;1.45;;;5.30;99.90;;;;;;4869177;29;20144;-66
2021/12/19 07:02:54;;;;;;;3.10;0.85;;;5.30;99.90;;;;;;4876987;29;20076;-64
2021/12/19 07:05:22;;;;;;;4.00;1.65;;;5.30;99.90;;;;;;4878494;29;20148;-66
2021/12/19 07:07:49;;;;;;;2.65;0.85;;;5.30;99.90;;;;;;4876947;29;20709;-66
2021/12/19 07:10:16;;;;;;;4.60;1.00;;;5.20;99.90;;;;;;4877781;29;20071;-67
2021/12/19 07:12:44;;;;;;;1.50;0.77;;;5.20;99.90;;;;;;4876337;29;20136;-65
2021/12/19 07:15:11;;;;;;;1.27;0.57;;;5.20;99.90;;;;;;4876495;29;20048;-68
2021/12/19 07:17:38;;;;;;;11.70;2.10;;;5.20;99.90;;;;;;4876252;29;20052;-68
2021/12/19 07:20:06;;;;;;;3.15;0.77;;;5.10;99.90;;;;;;4877569;29;20045;-68
2021/12/19 07:22:33;;;;;;;5.10;1.20;;;5.10;99.90;;;;;;4875170;29;20428;-69
2021/12/19 07:25:00;;;;;;;5.13;1.20;;;5.20;99.90;;;;;;4875460;29;20546;-67
2021/12/19 07:27:27;;;;;;;8.73;1.05;;;5.10;99.90;;;;;;4877456;29;20810;-67
2021/12/19 07:29:56;;;;;;;7.15;0.85;;;5.10;99.90;;;;;;4870511;29;20645;-69
2021/12/19 07:32:24;;;;;;;4.03;1.00;;;5.10;99.90;;;;;;4876016;29;20641;-62
2021/12/19 07:35:12;;;;;;;1.77;0.80;;;5.10;99.90;;;;;;4875487;29;20049;-70
2021/12/19 07:37:40;;;;;;;7.25;1.08;;;5.10;99.90;;;;;;4877073;29;20093;-70
2021/12/19 07:40:17;;;;;;;2.92;1.52;;;5.10;99.90;;;;;;4876741;29;20064;-70
2021/12/19 07:42:44;;;;;;;2.88;0.70;;;5.10;99.90;;;;;;4877301;29;20079;-65
2021/12/19 07:45:14;;;;;;;4.72;1.30;;;5.10;99.90;;;;;;4868878;29;20143;-71
2021/12/19 07:47:43;;;;;;;3.35;0.70;;;5.10;99.90;;;;;;4876578;29;20248;-64
2021/12/19 07:50:11;;;;;;;4.18;0.75;;;5.10;99.90;;;;;;4877303;29;20064;-66
2021/12/19 07:52:39;;;;;;;2.28;0.57;;;5.10;99.90;;;;;;4876826;29;20092;-66
2021/12/19 07:55:07;;;;;;;5.82;1.15;;;5.10;99.90;;;;;;4876879;29;20400;-66
2021/12/19 07:57:35;;;;;;;3.45;1.60;;;5.00;99.90;;;;;;4876657;29;20053;-68
2021/12/19 08:00:04;;;;;;;4.38;0.82;;;5.00;99.90;;;;;;4872430;29;20056;-69
2021/12/19 08:02:38;;;;;;;9.93;1.00;;;5.00;99.90;;;;;;4874914;29;20163;-66
2021/12/19 08:05:05;;;;;;;1.52;0.45;;;5.00;99.90;;;;;;4877314;29;20048;-67
2021/12/19 08:07:32;;;;;;;3.05;1.15;;;5.00;99.90;;;;;;4875301;29;20064;-67
2021/12/19 08:12:27;;;;;;;2.58;0.80;;;5.00;99.90;;;;;;4874500;29;20134;-67
2021/12/19 08:14:55;;;;;;;4.30;0.98;;;5.00;99.90;;;;;;4876045;29;20060;-70
2021/12/19 08:17:22;;;;;;;4.90;1.38;;;5.00;99.90;;;;;;4876482;29;20052;-63
2021/12/19 08:19:50;;;;;;;5.97;1.27;;;5.00;99.90;;;;;;4877360;29;20057;-67
2021/12/19 08:22:17;;;;;;;3.45;1.15;;;5.00;99.90;;;;;;4879689;29;20085;-74
2021/12/19 08:24:46;;;;;;;2.10;0.77;;;5.00;99.90;;;;;;4879309;29;20057;-67
2021/12/19 08:27:13;;;;;;;1.65;0.75;;;5.00;99.90;;;;;;4879945;29;20048;-67
2021/12/19 08:29:41;;;;;;;5.03;0.98;;;4.90;99.90;;;;;;4896381;29;20124;-69
2021/12/19 08:32:08;;;;;;;2.80;0.70;;;4.90;99.90;;;;;;4876189;29;21312;-64
2021/12/19 08:34:35;;;;;;;4.15;1.13;;;4.90;99.90;;;;;;4879123;29;20586;-66
2021/12/19 08:37:03;;;;;;;3.42;0.82;;;4.90;99.90;;;;;;4879267;29;20063;-67
2021/12/19 08:39:33;;;;;;;5.32;1.52;;;4.90;99.90;;;;;;4879731;29;20165;-63
2021/12/19 08:42:01;;;;;;;1.92;0.82;;;4.90;99.90;;;;;;4879089;29;20502;-66
2021/12/19 08:44:28;;;;;;;3.72;0.77;;;4.90;99.90;;;;;;4868627;29;20121;-67
2021/12/19 08:46:55;;;;;;;8.43;0.90;;;4.80;99.90;;;;;;4879814;29;20711;-68
2021/12/19 08:49:22;;;;;;;6.35;1.40;;;4.80;99.90;;;;;;4880201;29;20490;-68
2021/12/19 08:51:49;;;;;;;2.80;0.68;;;4.80;99.90;;;;;;4879123;29;20080;-67
2021/12/19 08:54:16;;;;;;;1.52;0.90;;;4.80;99.90;;;;;;4879140;29;20053;-64
2021/12/19 08:56:43;;;;;;;3.67;0.90;;;4.80;99.90;;;;;;4877285;29;20483;-69
2021/12/19 08:59:11;;;;;;;9.85;1.25;;;4.80;99.90;;;;;;4878723;29;20074;-68
2021/12/19 09:01:38;;;;;;;3.67;0.75;;;4.80;99.90;;;;;;4875460;29;20427;-67
2021/12/19 09:04:06;;;;;;;4.78;1.08;;;4.70;99.90;;;;;;4871084;29;20056;-66
2021/12/19 09:06:34;;;;;;;6.70;1.42;;;4.80;99.90;;;;;;4877834;29;20052;-68
2021/12/19 09:09:04;;;;;;;2.42;1.40;;;4.70;99.90;;;;;;4879930;29;20187;-65
2021/12/19 09:11:33;;;;;;;5.93;1.05;;;4.70;99.90;;;;;;4878542;29;20080;-68
2021/12/19 09:14:00;;;;;;;3.90;1.27;;;4.70;99.90;;;;;;4878053;29;20051;-70
2021/12/19 09:16:28;;;;;;;4.03;1.33;;;4.70;99.90;;;;;;4876196;29;20052;-66
2021/12/19 09:19:10;;;;;;;2.85;0.85;;;4.60;99.90;;;;;;4870474;29;20107;-67
2021/12/19 09:21:37;;;;;;;12.02;2.47;;;4.60;99.90;;;;;;4879553;29;20411;-67
2021/12/19 09:24:04;;;;;;;4.47;0.95;;;4.60;99.90;;;;;;4878721;29;20163;-63
2021/12/19 09:26:31;;;;;;;4.28;1.20;;;4.60;99.90;;;;;;4877099;29;20056;-68
2021/12/19 09:28:58;;;;;;;3.92;0.95;;;4.70;99.90;;;;;;4878209;29;20104;-65
2021/12/19 09:31:26;;;;;;;6.85;1.30;;;4.60;99.90;;;;;;4876514;29;20486;-71
2021/12/19 09:33:54;;;;;;;3.70;1.42;;;4.60;99.90;;;;;;4876234;29;20048;-67
2021/12/19 09:36:21;;;;;;;4.80;1.20;;;4.60;99.90;;;;;;4876437;29;20059;-68
2021/12/19 09:38:48;;;;;;;9.57;1.42;;;4.60;99.90;;;;;;4877292;29;20108;-69
2021/12/19 09:41:28;;;;;;;5.05;1.02;;;4.60;99.90;;;;;;4877568;29;20057;-69
2021/12/19 09:44:03;;;;;;;5.00;2.22;;;4.60;99.90;;;;;;4877631;29;20430;-66
2021/12/19 09:46:35;;;;;;;3.95;1.23;;;4.60;99.90;;;;;;4875992;29;20057;-66
2021/12/19 09:49:06;;;;;;;4.53;1.33;;;4.60;99.90;;;;;;4877224;29;20107;-66
2021/12/19 09:51:33;;;;;;;5.82;1.20;;;4.50;99.90;;;;;;4878017;29;20151;-68
2021/12/19 09:54:01;;;;;;;11.32;1.50;;;4.60;99.90;;;;;;4877670;29;20052;-68
2021/12/19 09:56:33;;;;;;;3.28;1.27;;;4.60;99.90;;;;;;4877206;29;21307;-64
2021/12/19 09:59:08;;;;;;;9.43;0.98;;;4.60;99.90;;;;;;4877312;29;20052;-66
2021/12/19 10:01:35;;;;;;;2.47;0.75;;;4.50;99.90;;;;;;4877530;29;20049;-67
2021/12/19 10:04:03;;;;;;;2.88;1.17;;;4.50;99.90;;;;;;4877178;29;20063;-64
2021/12/19 10:06:31;;;;;;;4.68;0.70;;;4.50;99.90;;;;;;4875665;29;20052;-65
2021/12/19 10:09:12;;;;;;;6.82;0.90;;;4.50;99.90;;;;;;4876664;29;20076;-67
2021/12/19 10:14:38;;;;;;;15.60;3.45;;;4.40;99.90;;;;;;4873925;29;19939;-65
2021/12/19 10:17:17;;;;;;;4.85;1.10;;;4.40;99.90;;;;;;4877034;29;20057;-66
2021/12/19 10:19:54;;;;;;;6.15;1.20;;;4.40;99.90;;;;;;4877660;29;20075;-67
2021/12/19 10:22:35;;;;;;;4.38;1.63;;;4.40;99.90;;;;;;4873021;29;20876;-65
2021/12/19 10:25:13;;;;;;;6.00;1.00;;;4.40;99.90;;;;;;4876093;29;20577;-67
2021/12/19 10:27:42;;;;;;;2.65;1.20;;;4.40;99.90;;;;;;4879379;29;20048;-67
2021/12/19 10:30:17;;;;;;;8.27;1.60;;;4.30;99.90;;;;;;4876952;29;20057;-65
2021/12/19 10:32:56;;;;;;;4.43;1.70;;;4.30;99.90;;;;;;4877766;29;20064;-64
2021/12/19 10:35:28;;;;;;;8.55;1.30;;;4.30;99.90;;;;;;4877419;29;20056;-64
2021/12/19 10:37:56;;;;;;;4.18;0.93;;;4.30;99.90;;;;;;4877727;29;20056;-68
2021/12/19 10:40:23;;;;;;;5.20;1.20;;;4.30;99.90;;;;;;4875116;29;20120;-65
2021/12/19 10:42:56;;;;;;;3.08;1.05;;;4.40;99.90;;;;;;4877689;29;20064;-66
2021/12/19 10:45:30;;;;;;;3.35;0.85;;;4.30;99.90;;;;;;4876167;29;20096;-66
2021/12/19 10:48:15;;;;;;;5.18;0.90;;;4.30;99.90;;;;;;4879372;29;20067;-64
2021/12/19 10:51:12;;;;;;;13.75;1.38;;;4.30;99.90;;;;;;4875852;29;20393;-67
2021/12/19 10:53:40;;;;;;;4.97;0.60;;;4.30;99.90;;;;;;4873369;29;20341;-66
2021/12/19 10:56:14;;;;;;;6.43;1.17;;;4.30;99.90;;;;;;4878029;29;20128;-69
2021/12/19 10:58:53;;;;;;;6.90;0.75;;;4.30;99.90;;;;;;4870856;29;20053;-64
2021/12/19 11:01:31;;;;;;;8.60;1.05;;;4.30;99.90;;;;;;4876076;29;20060;-65
2021/12/19 11:04:10;;;;;;;4.30;0.90;;;4.30;99.90;;;;;;4875853;29;20060;-66
2021/12/19 11:06:46;;;;;;;2.35;1.00;;;4.30;99.90;;;;;;4876240;29;20059;-68
2021/12/19 11:09:24;;;;;;;3.80;0.63;;;4.30;99.90;;;;;;4876554;29;20049;-68
2021/12/19 11:12:00;;;;;;;4.22;1.10;;;4.20;99.90;;;;;;4876514;29;20048;-67
2021/12/19 11:14:37;;;;;;;5.25;1.23;;;4.20;99.90;;;;;;4875573;29;20059;-68
2021/12/19 11:17:11;;;;;;;5.70;0.65;;;4.20;99.90;;;;;;4876817;29;20055;-64
2021/12/19 11:19:39;;;;;;;3.92;1.00;;;4.30;99.90;;;;;;4878117;29;20059;-67
2021/12/19 11:22:23;;;;;;;10.02;1.88;;;4.20;99.90;;;;;;4876766;29;20068;-70
2021/12/19 11:24:54;;;;;;;4.28;1.30;;;4.30;99.90;;;;;;4873842;29;20186;-65
2021/12/19 11:27:22;;;;;;;7.00;0.82;;;4.20;99.90;;;;;;4875233;29;20056;-68
2021/12/19 11:29:56;;;;;;;8.45;0.90;;;4.20;99.90;;;;;;4877550;29;20566;-65
2021/12/19 11:32:40;;;;;;;6.07;1.58;;;4.10;99.90;;;;;;4875412;29;20059;-71
2021/12/19 11:35:11;;;;;;;7.20;0.70;;;4.20;99.90;;;;;;4877196;29;20056;-64
2021/12/19 11:37:51;;;;;;;4.15;0.75;;;4.20;99.90;;;;;;4892296;29;20056;-70
2021/12/19 11:40:20;;;;;;;3.50;0.90;;;4.10;99.90;;;;;;4875571;29;20060;-69
2021/12/19 11:42:48;;;;;;;4.60;1.20;;;4.20;99.90;;;;;;4877594;29;20116;-64
2021/12/19 11:47:53;;;;;;;6.53;1.08;;;4.20;99.90;;;;;;4878049;29;20387;-65
2021/12/19 11:50:26;;;;;;;2.05;0.93;;;4.10;99.90;;;;;;4875828;29;20171;-66
2021/12/19 11:53:09;;;;;;;5.05;1.50;;;4.20;99.90;;;;;;4878410;29;20052;-63
2021/12/19 11:55:44;;;;;;;5.43;0.70;;;4.20;99.90;;;;;;4875317;29;20048;-65
2021/12/19 11:58:20;;;;;;;5.30;0.90;;;4.20;99.90;;;;;;4881123;29;20190;-65
2021/12/19 12:00:58;;;;;;;22.35;5.15;;;4.20;99.90;;;;;;4877483;29;20064;-66
2021/12/19 12:03:28;;;;;;;5.45;0.95;;;4.20;99.90;;;;;;4882069;29;20071;-63
2021/12/19 12:05:58;;;;;;;5.40;0.95;;;4.20;99.90;;;;;;4880072;29;20498;-67
2021/12/19 12:08:27;;;;;;;3.72;1.40;;;4.20;99.90;;;;;;4879631;29;20068;-69
2021/12/19 12:10:58;;;;;;;2.47;0.70;;;4.20;99.90;;;;;;4879819;29;20116;-66
2021/12/19 12:13:32;;;;;;;5.82;1.00;;;4.20;99.90;;;;;;4881286;29;20060;-68
2021/12/19 12:16:33;;;;;;;6.40;1.55;;;4.20;99.90;;;;;;4879239;29;20064;-66
2021/12/19 12:19:03;;;;;;;6.40;0.93;;;4.20;99.90;;;;;;4879942;29;20048;-71
2021/12/19 12:21:42;;;;;;;8.75;1.05;;;4.20;99.90;;;;;;4880672;29;20097;-69
2021/12/19 12:24:13;;;;;;;6.90;1.80;;;4.20;99.90;;;;;;4879984;29;20099;-67
2021/12/19 12:26:48;;;;;;;6.97;1.48;;;4.20;99.90;;;;;;4873523;29;20060;-66
2021/12/19 12:29:16;;;;;;;4.70;0.93;;;4.20;99.90;;;;;;4879102;29;20052;-71
2021/12/19 12:31:45;;;;;;;8.32;1.20;;;4.20;99.90;;;;;;4880346;29;20052;-68
2021/12/19 12:34:15;;;;;;;3.50;0.95;;;4.20;99.90;;;;;;4878856;29;20056;-68
2021/12/19 12:36:42;;;;;;;15.95;1.75;;;4.20;99.90;;;;;;4878315;29;20059;-70
2021/12/19 12:39:20;;;;;;;2.60;0.80;;;4.20;99.90;;;;;;4879622;29;20107;-65
2021/12/19 12:41:57;;;;;;;8.05;1.40;;;4.20;99.90;;;;;;4880098;29;20053;-66
2021/12/19 12:44:25;;;;;;;4.97;1.30;;;4.20;99.90;;;;;;4876533;29;20052;-69
2021/12/19 12:46:53;;;;;;;1.52;0.77;;;4.20;99.90;;;;;;4880060;29;20096;-67
2021/12/19 12:49:25;;;;;;;1.55;0.55;;;4.10;99.90;;;;;;4879500;29;20064;-69
2021/12/19 12:51:58;;;;;;;6.97;1.45;;;4.10;99.90;;;;;;4880957;29;20496;-64
2021/12/19 12:54:32;;;;;;;4.47;1.83;;;4.10;99.90;;;;;;4893892;29;20512;-67
2021/12/19 12:57:02;;;;;;;5.25;0.50;;;4.20;99.90;;;;;;4876711;29;20060;-68
2021/12/19 12:59:36;;;;;;;3.20;2.28;;;4.10;99.90;;;;;;4879989;29;20143;-67
2021/12/19 13:02:10;;;;;;;3.97;1.23;;;4.20;99.90;;;;;;4875069;29;20057;-66
2021/12/19 13:04:42;;;;;;;3.35;0.70;;;4.20;99.90;;;;;;4879120;29;20083;-67
2021/12/19 13:07:10;;;;;;;12.73;1.15;;;4.10;99.90;;;;;;4880626;29;20056;-68
2021/12/19 13:09:47;;;;;;;1.33;0.65;;;4.10;99.90;;;;;;4881770;29;20052;-68
2021/12/19 13:12:20;;;;;;;3.45;0.98;;;4.10;99.90;;;;;;4879606;29;20061;-69
2021/12/19 13:14:59;;;;;;;6.32;0.90;;;4.10;99.90;;;;;;4878830;29;20521;-66
2021/12/19 13:17:27;;;;;;;4.93;0.75;;;4.20;99.90;;;;;;4878101;29;20064;-64
2021/12/19 13:19:59;;;;;;;4.82;0.80;;;4.10;99.90;;;;;;4880593;29;20140;-65
2021/12/19 13:22:37;;;;;;;4.70;0.68;;;4.20;99.90;;;;;;4878783;29;20146;-69
2021/12/19 13:25:22;;;;;;;4.85;1.55;;;4.10;99.90;;;;;;4880449;29;20052;-71
2021/12/19 13:28:01;;;;;;;8.40;2.20;;;4.10;99.90;;;;;;4879245;29;20064;-64
2021/12/19 13:30:31;;;;;;;3.17;1.48;;;4.10;99.90;;;;;;4876558;29;20403;-69
2021/12/19 13:32:59;;;;;;;1.75;0.68;;;4.10;99.90;;;;;;4879796;29;20053;-67
2021/12/19 13:35:36;;;;;;;4.57;0.93;;;4.10;99.90;;;;;;4879360;29;20731;-68
2021/12/19 13:38:15;;;;;;;3.78;0.80;;;4.10;99.90;;;;;;4880889;29;20061;-65
2021/12/19 13:41:11;;;;;;;6.20;0.73;;;4.10;99.90;;;;;;4876735;29;20063;-63
2021/12/19 13:43:40;;;;;;;2.50;0.60;;;4.10;99.90;;;;;;4880934;29;20477;-64
2021/12/19 13:46:12;;;;;;;5.97;0.50;;;4.10;99.90;;;;;;4877852;29;20460;-71
2021/12/19 13:48:50;;;;;;;2.83;0.70;;;4.10;99.90;;;;;;4879221;29;20068;-72
2021/12/19 13:51:21;;;;;;;4.70;0.80;;;4.10;99.90;;;;;;4878437;29;20197;-70
2021/12/19 13:54:10;;;;;;;8.25;1.98;;;4.10;99.90;;;;;;4879655;29;20047;-64
2021/12/19 13:56:38;;;;;;;8.07;1.27;;;4.10;99.90;;;;;;4876829;29;20057;-67
2021/12/19 13:59:16;;;;;;;6.38;1.08;;;4.10;99.90;;;;;;4879140;29;20052;-71
2021/12/19 14:01:43;;;;;;;9.57;1.52;;;4.10;99.90;;;;;;4879300;29;20527;-66
2021/12/19 14:04:17;;;;;;;6.40;0.73;;;4.10;99.90;;;;;;4879147;29;21557;-67
2021/12/19 14:06:46;;;;;;;9.93;1.42;;;4.10;99.90;;;;;;4878412;29;20048;-63
2021/12/19 14:09:21;;;;;;;2.03;0.82;;;4.10;99.90;;;;;;4876916;29;20408;-67
2021/12/19 14:11:57;;;;;;;7.43;1.50;;;4.10;99.90;;;;;;4879091;29;20057;-65
2021/12/19 14:14:29;;;;;;;8.05;1.92;;;4.10;99.90;;;;;;4876767;29;20056;-67
2021/12/19 14:17:07;;;;;;;2.47;0.90;;;4.10;99.90;;;;;;4878408;29;20052;-66
2021/12/19 14:19:35;;;;;;;4.20;1.27;;;4.10;99.90;;;;;;4878983;29;20049;-66
2021/12/19 14:22:02;;;;;;;7.43;0.90;;;4.20;99.90;;;;;;4879180;29;20483;-68
2021/12/19 14:24:31;;;;;;;6.00;0.85;;;4.20;99.90;;;;;;4878382;29;20052;-64
2021/12/19 14:27:15;;;;;;;3.90;0.85;;;4.20;99.90;;;;;;4877467;29;20123;-67
2021/12/19 14:29:48;;;;;;;5.93;0.77;;;4.20;99.90;;;;;;4876488;29;20053;-66